Terminal Aerodrome Forecast
Issued by NWS

Home | Current Version | Previous Version | Text Only | Print | Product List | Glossary On
Versions: 1 2 3 4 5 6 7 8 9 10 11 12 13 14 15 16 17 18
000
FTUS44 KLZK 301100
TAFLIT
TAF
KLIT 301120Z 3012/3112 VRB06KT P6SM FEW035
     FM302100 17005KT P6SM SCT035 SCT120
     FM310400 19005KT P6SM VCSH SCT025 BKN040 PROB30 3106/3112 5SM
      -SHRA BR BKN020=

USA.gov is the U.S. government's official web portal to all federal, state and local government web resources and services.